createdAt,value
2023-03-05T00:00:15.515Z,3
2023-03-05T00:01:24.246Z,2.7
2023-03-05T00:02:32.933Z,2.5
2023-03-05T00:03:42.767Z,2.5
2023-03-05T00:04:50.392Z,3.1
2023-03-05T00:05:59.089Z,2.7
2023-03-05T00:07:08.755Z,2.6
2023-03-05T00:08:17.463Z,2.6
2023-03-05T00:09:26.139Z,2.8
2023-03-05T00:10:34.825Z,3.5
2023-03-05T00:11:44.593Z,2
2023-03-05T00:12:54.289Z,2.7
2023-03-05T00:14:03.123Z,2.7
2023-03-05T00:15:12.673Z,3
2023-03-05T00:16:22.596Z,2.8
2023-03-05T00:17:31.226Z,2.9
2023-03-05T00:18:40.946Z,3.2
2023-03-05T00:19:49.660Z,3.3
2023-03-05T00:20:57.431Z,2.5
2023-03-05T00:22:07.108Z,2.8
2023-03-05T00:23:15.797Z,2.3
2023-03-05T00:24:25.521Z,2.3
2023-03-05T00:25:35.190Z,3.2
2023-03-05T00:26:43.881Z,3.1
2023-03-05T00:27:53.587Z,3
2023-03-05T00:29:03.313Z,2.6
2023-03-05T00:30:09.980Z,2.3
2023-03-05T00:31:18.704Z,2.5
2023-03-05T00:32:27.379Z,2.5
2023-03-05T00:33:37.036Z,2.7
2023-03-05T00:34:46.722Z,2.3
2023-03-05T00:35:54.499Z,2.8
2023-03-05T00:37:04.091Z,2.4
2023-03-05T00:38:13.782Z,2.8
2023-03-05T00:39:22.468Z,2.8
2023-03-05T00:40:32.212Z,2.5
2023-03-05T00:41:40.842Z,2.7
2023-03-05T00:42:50.511Z,2.4
2023-03-05T00:44:00.260Z,2.4
2023-03-05T00:45:09.995Z,2.7
2023-03-05T00:46:19.812Z,2.5
2023-03-05T00:47:28.486Z,3.3
2023-03-05T00:48:38.202Z,2.2
2023-03-05T00:49:47.946Z,2.7
2023-03-05T00:50:55.692Z,3.2
2023-03-05T00:52:05.438Z,2.2
2023-03-05T00:53:14.178Z,2.7
2023-03-05T00:54:23.919Z,2.9
2023-03-05T00:55:33.692Z,2.6
2023-03-05T00:56:42.436Z,2.7
2023-03-05T00:57:52.108Z,3.1
2023-03-05T00:59:00.797Z,3
2023-03-05T01:00:09.492Z,2
2023-03-05T01:01:19.248Z,2.6
2023-03-05T01:02:26.913Z,3.2
2023-03-05T01:03:35.666Z,2.8
2023-03-05T01:04:45.391Z,2.8
2023-03-05T01:05:54.060Z,2.5
2023-03-05T01:07:03.776Z,2.6
2023-03-05T01:08:12.448Z,1.9
2023-03-05T01:09:20.110Z,2.6
2023-03-05T01:10:29.811Z,3.1
2023-03-05T01:11:38.496Z,2.8
2023-03-05T01:12:47.143Z,2.9
2023-03-05T01:13:56.790Z,3.6
2023-03-05T01:15:06.492Z,2.7
2023-03-05T01:16:16.237Z,2.9
2023-03-05T01:17:24.878Z,2.3
2023-03-05T01:18:34.654Z,2.3
2023-03-05T01:19:44.254Z,2.8
2023-03-05T01:20:51.903Z,2.5
2023-03-05T01:22:00.601Z,2.8
2023-03-05T01:23:10.312Z,2.8
2023-03-05T01:24:18.017Z,2.2
2023-03-05T01:25:27.717Z,2.9
2023-03-05T01:26:37.512Z,2.8
2023-03-05T01:27:47.208Z,2.7
2023-03-05T01:28:56.888Z,3
2023-03-05T01:30:04.560Z,2.9
2023-03-05T01:31:13.508Z,3.1
2023-03-05T01:32:23.129Z,3.1
2023-03-05T01:33:32.762Z,2.6
2023-03-05T01:34:42.476Z,2.6
2023-03-05T01:35:52.271Z,2.1
2023-03-05T01:37:00.990Z,2.5
2023-03-05T01:38:10.791Z,3.1
2023-03-05T01:39:19.459Z,3.2
2023-03-05T01:40:29.118Z,3.2
2023-03-05T01:41:39.799Z,2.3
2023-03-05T01:42:48.557Z,2.5
2023-03-05T01:43:59.220Z,2.8
2023-03-05T01:45:07.891Z,2.9
2023-03-05T01:46:16.604Z,3.1
2023-03-05T01:47:26.351Z,2.8
2023-03-05T01:48:36.041Z,2.1
2023-03-05T01:49:45.771Z,3.5
2023-03-05T01:50:55.453Z,2.5
2023-03-05T01:52:05.157Z,2.3
2023-03-05T01:53:14.849Z,2.5
2023-03-05T01:54:23.526Z,3.4
2023-03-05T01:55:32.222Z,2.3
2023-03-05T01:56:41.908Z,2.4
2023-03-05T01:57:50.627Z,2.4
2023-03-05T01:59:00.306Z,2.6
2023-03-05T02:00:09.976Z,2.4
2023-03-05T02:01:17.802Z,3
2023-03-05T02:02:27.568Z,2.9
2023-03-05T02:03:36.328Z,2.4
2023-03-05T02:04:45.977Z,2.5
2023-03-05T02:05:55.714Z,3.2
2023-03-05T02:07:05.363Z,2.6
2023-03-05T02:08:16.046Z,2.9
2023-03-05T02:09:25.711Z,3.1
2023-03-05T02:10:33.409Z,2.3
2023-03-05T02:11:43.048Z,2.6
2023-03-05T02:12:51.790Z,3.4
2023-03-05T02:14:00.527Z,2.8
2023-03-05T02:15:10.220Z,3
2023-03-05T02:16:18.940Z,2.6
2023-03-05T02:17:27.718Z,2.5
2023-03-05T02:18:37.375Z,2.3
2023-03-05T02:19:46.079Z,2.1
2023-03-05T02:20:55.753Z,2.3
2023-03-05T02:22:05.520Z,2.4
2023-03-05T02:23:14.152Z,2.9
2023-03-05T02:24:23.942Z,3.1
2023-03-05T02:25:32.642Z,2.9
2023-03-05T02:26:41.290Z,3.1
2023-03-05T02:27:50.981Z,2.9
2023-03-05T02:28:59.688Z,2.5
2023-03-05T02:30:09.399Z,2.4
2023-03-05T02:31:18.235Z,3.7
2023-03-05T02:32:25.892Z,2.3
2023-03-05T02:33:35.563Z,2.8
2023-03-05T02:34:44.367Z,2.2
2023-03-05T02:35:54.119Z,3.1
2023-03-05T02:37:03.830Z,2.4
2023-03-05T02:38:13.646Z,2.3
2023-03-05T02:39:23.308Z,2.6
2023-03-05T02:40:32.019Z,2.9
2023-03-05T02:41:40.689Z,2.7
2023-03-05T02:42:49.374Z,2.1
2023-03-05T02:43:58.056Z,2.7
2023-03-05T02:45:07.760Z,2.8
2023-03-05T02:46:15.421Z,3.1
2023-03-05T02:47:24.173Z,2.8
2023-03-05T02:48:33.852Z,2.7
2023-03-05T02:49:41.564Z,2.5
2023-03-05T02:50:51.222Z,2.9
2023-03-05T02:51:59.946Z,2.4
2023-03-05T02:53:09.649Z,2.6
2023-03-05T02:54:19.330Z,2.8
2023-03-05T02:55:28.019Z,2.7
2023-03-05T02:56:36.746Z,2.6
2023-03-05T02:57:46.463Z,2.8
2023-03-05T02:58:56.147Z,2.9
2023-03-05T03:00:05.947Z,2.2
2023-03-05T03:01:15.658Z,2.5
2023-03-05T03:02:23.220Z,2.6
2023-03-05T03:03:33.010Z,2.3
2023-03-05T03:04:40.651Z,2.5
2023-03-05T03:05:49.318Z,2.4
2023-03-05T03:06:58.991Z,2.3
2023-03-05T03:08:08.685Z,2.7
2023-03-05T03:09:18.393Z,2.5
2023-03-05T03:10:28.109Z,3.1
2023-03-05T03:11:35.814Z,2.9
2023-03-05T03:12:45.533Z,2.6
2023-03-05T03:13:53.191Z,2.8
2023-03-05T03:15:02.959Z,2.6
2023-03-05T03:16:12.648Z,2.8
2023-03-05T03:17:20.318Z,2.6
2023-03-05T03:18:29.067Z,2.8
2023-03-05T03:19:37.735Z,2.9
2023-03-05T03:20:47.468Z,3
2023-03-05T03:21:57.146Z,2
2023-03-05T03:23:05.882Z,2.6
2023-03-05T03:24:14.582Z,3.1
2023-03-05T03:25:24.288Z,2.7
2023-03-05T03:26:32.973Z,2.6
2023-03-05T03:27:42.681Z,2.9
2023-03-05T03:28:51.331Z,3.1
2023-03-05T03:29:59.098Z,2.6
2023-03-05T03:31:08.819Z,3.1
2023-03-05T03:32:16.620Z,2.6
2023-03-05T03:33:25.279Z,2.5
2023-03-05T03:34:34.932Z,2.9
2023-03-05T03:35:44.342Z,2.5
2023-03-05T03:36:54.001Z,2.8
2023-03-05T03:38:02.728Z,2.7
2023-03-05T03:39:10.388Z,2.8
2023-03-05T03:40:20.121Z,2.8
2023-03-05T03:41:28.778Z,3.3
2023-03-05T03:42:37.491Z,2.5
2023-03-05T03:43:47.152Z,3.1
2023-03-05T03:44:55.869Z,2.5
2023-03-05T03:46:04.551Z,2.9
2023-03-05T03:47:14.120Z,3.4
2023-03-05T03:48:22.873Z,2.7
2023-03-05T03:49:31.580Z,3.4
2023-03-05T03:50:40.255Z,2.1
2023-03-05T03:51:48.911Z,2.7
2023-03-05T03:52:58.668Z,2.7
2023-03-05T03:54:07.449Z,4
2023-03-05T03:55:17.105Z,3.1
2023-03-05T03:56:26.790Z,3.1
2023-03-05T03:57:36.490Z,2.4
2023-03-05T03:58:46.243Z,3.4
2023-03-05T03:59:55.922Z,3
2023-03-05T04:01:09.548Z,2.6
2023-03-05T04:02:19.925Z,2.6
2023-03-05T04:06:07.787Z,3.1
2023-03-05T04:07:16.478Z,3
2023-03-05T04:08:26.182Z,3.2
2023-03-05T04:09:35.018Z,2.8
2023-03-05T04:10:44.709Z,2.7
2023-03-05T04:11:53.369Z,2.9
2023-03-05T04:13:03.057Z,2.5
2023-03-05T04:14:12.805Z,3
2023-03-05T04:15:22.727Z,3
2023-03-05T04:16:32.436Z,2.9
2023-03-05T04:17:42.091Z,3
2023-03-05T04:18:49.799Z,3
2023-03-05T04:19:59.490Z,4
2023-03-05T04:21:08.152Z,3.6
2023-03-05T04:22:15.847Z,3.2
2023-03-05T04:23:25.536Z,3
2023-03-05T04:24:34.257Z,3.1
2023-03-05T04:25:40.983Z,2.6
2023-03-05T04:26:50.663Z,2.9
2023-03-05T04:27:58.348Z,2.5
2023-03-05T04:29:08.190Z,3
2023-03-05T04:30:17.943Z,3.8
2023-03-05T04:31:25.818Z,2.5
2023-03-05T04:32:35.503Z,2.6
2023-03-05T04:33:43.095Z,2.5
2023-03-05T04:34:51.814Z,2.7
2023-03-05T04:36:01.507Z,3.2
2023-03-05T04:37:09.188Z,3.1
2023-03-05T04:38:18.979Z,3.2
2023-03-05T04:39:27.702Z,3.1
2023-03-05T04:40:35.436Z,2.7
2023-03-05T04:41:45.190Z,3.3
2023-03-05T04:42:52.918Z,2.8
2023-03-05T04:44:02.651Z,2.4
2023-03-05T04:45:11.355Z,2.8
2023-03-05T04:46:20.081Z,2.6
2023-03-05T04:47:29.774Z,2.6
2023-03-05T04:48:37.530Z,2.4
2023-03-05T04:49:47.237Z,2.5
2023-03-05T04:50:55.945Z,2.7
2023-03-05T04:52:05.729Z,2.5
2023-03-05T04:53:15.388Z,2.7
2023-03-05T04:54:23.116Z,2.6
2023-03-05T04:55:31.853Z,1.8
2023-03-05T04:56:40.514Z,2.4
2023-03-05T04:57:49.175Z,2.4
2023-03-05T04:58:58.879Z,2.7
2023-03-05T05:00:08.799Z,3.4
2023-03-05T05:01:18.502Z,2.6
2023-03-05T05:02:28.228Z,2.6
2023-03-05T05:03:36.821Z,2.4
2023-03-05T05:04:45.558Z,2.5
2023-03-05T05:05:55.273Z,3.1
2023-03-05T05:07:03.964Z,2.4
2023-03-05T05:08:13.656Z,3.2
2023-03-05T05:09:23.351Z,2.8
2023-03-05T05:10:31.022Z,2.1
2023-03-05T05:11:40.763Z,2.1
2023-03-05T05:12:50.494Z,2.4
2023-03-05T05:14:00.156Z,2.4
2023-03-05T05:15:09.871Z,2.8
2023-03-05T05:16:17.628Z,2.5
2023-03-05T05:17:27.205Z,2
2023-03-05T05:18:36.927Z,2.6
2023-03-05T05:19:45.622Z,2.7
2023-03-05T05:20:55.290Z,2.6
2023-03-05T05:22:04.949Z,2
2023-03-05T05:23:13.643Z,2.7
2023-03-05T05:24:23.305Z,2.4
2023-03-05T05:25:31.005Z,2.6
2023-03-05T05:26:40.676Z,2.7
2023-03-05T05:27:49.370Z,3.2
2023-03-05T05:28:57.114Z,3.4
2023-03-05T05:30:06.844Z,1.8
2023-03-05T05:31:16.561Z,2.6
2023-03-05T05:32:26.232Z,3
2023-03-05T05:33:35.880Z,2.6
2023-03-05T05:34:44.733Z,2.4
2023-03-05T05:35:54.537Z,2.2
2023-03-05T05:37:04.181Z,2.9
2023-03-05T05:38:13.861Z,2.4
2023-03-05T05:39:23.554Z,2.7
2023-03-05T05:40:31.278Z,3.1
2023-03-05T05:41:39.954Z,2.4
2023-03-05T05:42:49.660Z,3.2
2023-03-05T05:43:57.323Z,3.1
2023-03-05T05:45:07.088Z,2.9
2023-03-05T05:46:14.814Z,2.3
2023-03-05T05:47:22.357Z,2.2
2023-03-05T05:48:31.042Z,2.9
2023-03-05T05:49:39.760Z,2.1
2023-03-05T05:50:48.559Z,2.6
2023-03-05T05:51:58.202Z,3
2023-03-05T05:53:07.935Z,2.6
2023-03-05T05:54:17.596Z,2.2
2023-03-05T05:55:26.319Z,2.9
2023-03-05T05:56:34.044Z,2.4
2023-03-05T05:57:43.750Z,2.8
2023-03-05T05:58:51.416Z,2.4
2023-03-05T06:00:01.087Z,2.4
2023-03-05T06:01:09.753Z,2.2
2023-03-05T06:02:17.525Z,3
2023-03-05T06:03:27.204Z,1.9
2023-03-05T06:04:37.011Z,2.2
2023-03-05T06:05:46.763Z,2.7
2023-03-05T06:06:56.526Z,3.1
2023-03-05T06:08:06.171Z,2.3
2023-03-05T06:09:14.834Z,2.8
2023-03-05T06:10:24.571Z,2.3
2023-03-05T06:11:33.235Z,2.7
2023-03-05T06:12:42.936Z,2.5
2023-03-05T06:13:51.578Z,2.5
2023-03-05T06:14:59.250Z,2.8
2023-03-05T06:16:08.976Z,2.6
2023-03-05T06:17:25.317Z,2.6
2023-03-05T06:18:28.352Z,2.3
2023-03-05T06:19:37.991Z,2.5
2023-03-05T06:20:46.806Z,2.5
2023-03-05T06:21:56.615Z,2.1
2023-03-05T06:23:05.282Z,2.2
2023-03-05T06:24:13.911Z,1.9
2023-03-05T06:25:22.593Z,2.4
2023-03-05T06:26:31.266Z,2.4
2023-03-05T06:27:41.940Z,2.2
2023-03-05T06:28:51.610Z,2.1
2023-03-05T06:29:59.256Z,1.8
2023-03-05T06:31:08.985Z,1.8
2023-03-05T06:32:18.617Z,2.2
2023-03-05T06:33:29.293Z,2
2023-03-05T06:34:39.033Z,2
2023-03-05T06:35:46.873Z,2
2023-03-05T06:36:55.534Z,1.6
2023-03-05T06:38:05.240Z,1.8
2023-03-05T06:39:12.973Z,2
2023-03-05T06:40:22.638Z,1.9
2023-03-05T06:41:31.356Z,2.3
2023-03-05T06:42:41.041Z,2.3
2023-03-05T06:43:50.722Z,2.2
2023-03-05T06:44:59.374Z,1.9
2023-03-05T06:46:09.221Z,2.7
2023-03-05T06:47:18.028Z,2.5
2023-03-05T06:48:27.704Z,2.3
2023-03-05T06:49:37.393Z,2.1
2023-03-05T06:50:46.046Z,2.6
2023-03-05T06:51:55.879Z,2.2
2023-03-05T06:53:04.544Z,2.1
2023-03-05T06:54:14.264Z,2.3
2023-03-05T06:55:23.977Z,2.4
2023-03-05T06:56:33.661Z,1.9
2023-03-05T06:57:42.326Z,2.4
2023-03-05T06:58:51.993Z,2.4
2023-03-05T07:00:00.671Z,2.7
2023-03-05T07:01:10.456Z,2.1
2023-03-05T07:02:19.298Z,2.2
2023-03-05T07:03:27.936Z,2
2023-03-05T07:04:37.656Z,2.3
2023-03-05T07:05:45.336Z,1.9
2023-03-05T07:06:54.002Z,2.4
2023-03-05T07:08:03.725Z,2.1
2023-03-05T07:09:11.387Z,1.9
2023-03-05T07:10:21.064Z,1.9
2023-03-05T07:11:30.842Z,1.9
2023-03-05T07:12:38.496Z,1.9
2023-03-05T07:13:48.157Z,1.7
2023-03-05T07:14:55.958Z,2.1
2023-03-05T07:16:04.693Z,2.1
2023-03-05T07:17:14.343Z,2.2
2023-03-05T07:18:23.006Z,2.3
2023-03-05T07:19:32.707Z,2.3
2023-03-05T07:20:42.442Z,2.5
2023-03-05T07:21:50.205Z,2.2
2023-03-05T07:22:59.872Z,2.2
2023-03-05T07:24:07.576Z,2.4
2023-03-05T07:25:16.234Z,2.3
2023-03-05T07:26:25.930Z,2.3
2023-03-05T07:27:33.624Z,2.6
2023-03-05T07:28:43.340Z,2.1
2023-03-05T07:29:51.980Z,2.3
2023-03-05T07:30:59.720Z,2.6
2023-03-05T07:32:09.454Z,2.5
2023-03-05T07:33:17.092Z,2.4
2023-03-05T07:34:27.292Z,2.2
2023-03-05T07:35:36.548Z,1.9
2023-03-05T07:36:44.328Z,2.6
2023-03-05T07:37:53.995Z,1.6
2023-03-05T07:39:02.694Z,1.9
2023-03-05T07:40:11.368Z,2.3
2023-03-05T07:41:21.066Z,2.5
2023-03-05T07:42:30.802Z,2.3
2023-03-05T07:43:39.572Z,2.8
2023-03-05T07:44:49.214Z,2.6
2023-03-05T07:45:57.951Z,2
2023-03-05T07:47:07.669Z,2.2
2023-03-05T07:48:17.337Z,2.2
2023-03-05T07:49:25.004Z,2.3
2023-03-05T07:50:34.766Z,2.3
2023-03-05T07:51:43.506Z,2.4
2023-03-05T07:52:52.205Z,2.3
2023-03-05T07:54:01.870Z,2.3
2023-03-05T07:55:09.526Z,2.4
2023-03-05T07:56:19.284Z,2.2
2023-03-05T07:57:27.978Z,2.1
2023-03-05T07:58:37.650Z,1.7
2023-03-05T07:59:47.359Z,1.9
2023-03-05T08:00:56.052Z,2.4
2023-03-05T08:02:05.917Z,2.7
2023-03-05T08:03:15.608Z,1.9
2023-03-05T08:04:23.347Z,2.6
2023-03-05T08:05:32.989Z,2.3
2023-03-05T08:06:42.665Z,2.4
2023-03-05T08:07:51.395Z,2.5
2023-03-05T08:09:02.062Z,1.9
2023-03-05T08:10:10.785Z,3
2023-03-05T08:11:19.471Z,2.1
2023-03-05T08:12:29.184Z,2.4
2023-03-05T08:13:37.869Z,2.3
2023-03-05T08:14:47.703Z,2.6
2023-03-05T08:15:57.396Z,1.9
2023-03-05T08:17:07.121Z,1.8
2023-03-05T08:18:15.775Z,2.5
2023-03-05T08:19:23.441Z,2.2
2023-03-05T08:20:32.124Z,2.5
2023-03-05T08:21:41.846Z,1.9
2023-03-05T08:22:49.553Z,2.5
2023-03-05T08:23:59.227Z,2.2
2023-03-05T08:25:08.955Z,2.1
2023-03-05T08:26:16.618Z,2.4
2023-03-05T08:27:26.337Z,1.8
2023-03-05T08:28:35.006Z,2.7
2023-03-05T08:29:43.710Z,2.3
2023-03-05T08:30:53.537Z,2.5
2023-03-05T08:32:01.246Z,2.5
2023-03-05T08:33:10.881Z,2.4
2023-03-05T08:34:19.606Z,2.7
2023-03-05T08:35:27.353Z,2.9
2023-03-05T08:36:37.025Z,2.4
2023-03-05T08:37:44.705Z,2.2
2023-03-05T08:38:54.485Z,2.4
2023-03-05T08:40:03.172Z,2.5
2023-03-05T08:41:12.866Z,2.7
2023-03-05T08:42:22.567Z,2.2
2023-03-05T08:43:30.241Z,2.1
2023-03-05T08:44:39.942Z,2.7
2023-03-05T08:45:49.630Z,2.2
2023-03-05T08:46:59.428Z,1.9
2023-03-05T08:48:09.128Z,2
2023-03-05T08:49:18.783Z,2.8
2023-03-05T08:50:27.493Z,2.4
2023-03-05T08:51:37.219Z,2.4
2023-03-05T08:52:46.993Z,2.1
2023-03-05T08:53:56.655Z,2.3
2023-03-05T08:55:06.310Z,2.2
2023-03-05T08:56:14.996Z,1.8
2023-03-05T08:57:24.676Z,2.2
2023-03-05T08:58:32.353Z,2.3
2023-03-05T08:59:40.086Z,2.3
2023-03-05T09:00:49.762Z,2.8
2023-03-05T09:01:57.490Z,2
2023-03-05T09:03:07.268Z,2.7
2023-03-05T09:04:16.060Z,2.5
2023-03-05T09:05:24.764Z,1.8
2023-03-05T09:06:34.477Z,2.2
2023-03-05T09:07:43.402Z,2.6
2023-03-05T09:08:52.093Z,2.9
2023-03-05T09:10:01.781Z,2.8
2023-03-05T09:11:09.482Z,2.6
2023-03-05T09:12:19.241Z,3.3
2023-03-05T09:13:27.952Z,2.7
2023-03-05T09:14:36.602Z,3.6
2023-03-05T09:15:46.286Z,3.1
2023-03-05T09:16:54.978Z,3.1
2023-03-05T09:18:03.659Z,2.9
2023-03-05T09:19:13.316Z,2.9
2023-03-05T09:20:21.057Z,2.7
2023-03-05T09:21:30.712Z,2.8
2023-03-05T09:22:40.407Z,3.6
2023-03-05T09:23:49.091Z,3.9
2023-03-05T09:24:59.835Z,4
2023-03-05T09:26:08.513Z,3.7
2023-03-05T09:27:18.202Z,3.4
2023-03-05T09:28:28.014Z,3.4
2023-03-05T09:29:36.728Z,4.1
2023-03-05T09:30:46.507Z,3.6
2023-03-05T09:31:55.302Z,3.5
2023-03-05T09:33:03.914Z,3.9
2023-03-05T09:34:13.610Z,3.6
2023-03-05T09:35:22.326Z,3.4
2023-03-05T09:36:31.989Z,3.6
2023-03-05T09:37:41.687Z,3.1
2023-03-05T09:38:50.393Z,3.5
2023-03-05T09:40:00.165Z,4.1
2023-03-05T09:41:08.819Z,3
2023-03-05T09:42:17.523Z,2.9
2023-03-05T09:43:27.238Z,3.8
2023-03-05T09:44:37.034Z,3.1
2023-03-05T09:45:51.818Z,3.2
2023-03-05T09:47:01.455Z,2.9
2023-03-05T09:48:10.171Z,4
2023-03-05T09:49:17.905Z,3.7
2023-03-05T09:50:27.598Z,3.7
2023-03-05T09:51:37.320Z,2.9
2023-03-05T09:52:46.028Z,3.5
2023-03-05T09:53:54.773Z,3.4
2023-03-05T09:55:03.478Z,3.4
2023-03-05T09:56:13.225Z,3.2
2023-03-05T09:57:21.902Z,3.2
2023-03-05T09:58:29.570Z,3.8
2023-03-05T09:59:39.257Z,3.3
2023-03-05T10:00:48.947Z,3.2
2023-03-05T10:01:57.604Z,3.1
2023-03-05T10:03:07.379Z,2.9
2023-03-05T10:04:18.783Z,3.3
2023-03-05T10:05:27.447Z,3.9
2023-03-05T10:06:36.063Z,3.3
2023-03-05T10:07:44.795Z,3.8
2023-03-05T10:08:54.436Z,3.6
2023-03-05T10:10:03.062Z,3
2023-03-05T10:11:11.781Z,3.3
2023-03-05T10:12:21.527Z,3.5
2023-03-05T10:13:30.226Z,3.2
2023-03-05T10:14:39.904Z,2.7
2023-03-05T10:15:49.589Z,3.3
2023-03-05T10:16:58.325Z,3.4
2023-03-05T10:18:07.964Z,3.1
2023-03-05T10:19:16.681Z,3.7
2023-03-05T10:20:25.400Z,3.4
2023-03-05T10:21:35.061Z,3.1
2023-03-05T10:22:44.748Z,2.2
2023-03-05T10:23:54.472Z,2.9
2023-03-05T10:25:03.106Z,2.8
2023-03-05T10:26:11.781Z,3.2
2023-03-05T10:27:21.557Z,3
2023-03-05T10:28:30.306Z,3.3
2023-03-05T10:29:39.961Z,3.4
2023-03-05T10:30:49.666Z,3.3
2023-03-05T10:31:57.417Z,3.2
2023-03-05T10:33:07.021Z,3.4
2023-03-05T10:34:15.707Z,3.4
2023-03-05T10:35:24.431Z,3.7
2023-03-05T10:36:34.048Z,3
2023-03-05T10:37:42.707Z,3.3
2023-03-05T10:38:52.406Z,3.6
2023-03-05T10:40:00.122Z,3.2
2023-03-05T10:41:09.760Z,3.9
2023-03-05T10:42:19.431Z,2.8
2023-03-05T10:43:27.085Z,3.5
2023-03-05T10:44:35.769Z,4.1
2023-03-05T10:45:44.446Z,3.9
2023-03-05T10:46:56.010Z,3.5
2023-03-05T10:48:04.774Z,3.5
2023-03-05T10:49:12.470Z,3.2
2023-03-05T10:50:21.138Z,3.6
2023-03-05T10:51:30.801Z,4
2023-03-05T10:52:40.478Z,3.3
2023-03-05T10:53:50.175Z,3.5
2023-03-05T10:54:58.842Z,2.8
2023-03-05T10:56:08.530Z,3.3
2023-03-05T10:57:18.174Z,2.8
2023-03-05T10:58:27.831Z,3.5
2023-03-05T10:59:37.526Z,3.6
2023-03-05T11:00:47.181Z,3.1
2023-03-05T11:01:56.862Z,3.2
2023-03-05T11:03:06.520Z,3.3
2023-03-05T11:04:14.238Z,3.1
2023-03-05T11:05:21.918Z,3.1
2023-03-05T11:06:31.602Z,3.4
2023-03-05T11:07:41.335Z,3.2
2023-03-05T11:08:50.022Z,3.4
2023-03-05T11:09:58.707Z,3.1
2023-03-05T11:11:08.371Z,3.1
2023-03-05T11:12:18.054Z,2.7
2023-03-05T11:13:27.724Z,3.5
2023-03-05T11:14:35.390Z,2.8
2023-03-05T11:15:45.092Z,3.2
2023-03-05T11:16:53.732Z,3.1
2023-03-05T11:18:01.402Z,3.2
2023-03-05T11:19:11.048Z,3.3
2023-03-05T11:20:18.813Z,3
2023-03-05T11:21:28.428Z,3.2
2023-03-05T11:22:38.088Z,2.9
2023-03-05T11:23:45.807Z,3.5
2023-03-05T11:24:55.500Z,3.6
2023-03-05T11:26:04.169Z,2.9
2023-03-05T11:27:13.872Z,3
2023-03-05T11:28:32.156Z,3.2
2023-03-05T11:29:32.244Z,3.2
2023-03-05T11:30:41.932Z,2.7
2023-03-05T11:31:50.603Z,2.9
2023-03-05T11:32:59.249Z,3.3
2023-03-05T11:34:08.956Z,3.3
2023-03-05T11:35:16.773Z,3.3
2023-03-05T11:36:26.441Z,3.1
2023-03-05T11:37:36.131Z,2.8
2023-03-05T11:38:43.817Z,3
2023-03-05T11:39:52.525Z,3.1
2023-03-05T11:41:02.175Z,3.4
2023-03-05T11:42:10.855Z,2.6
2023-03-05T11:43:20.571Z,2.7
2023-03-05T11:44:28.253Z,2.8
2023-03-05T11:45:36.915Z,2.3
2023-03-05T11:46:46.586Z,2.9
2023-03-05T11:47:55.245Z,2.5
2023-03-05T11:49:04.932Z,2.8
2023-03-05T11:50:13.644Z,2.4
2023-03-05T11:51:23.308Z,2.8
2023-03-05T11:52:32.968Z,3.1
2023-03-05T11:53:40.631Z,3.4
2023-03-05T11:54:50.317Z,3.4
2023-03-05T11:56:00.130Z,4
2023-03-05T11:57:06.769Z,3.9
2023-03-05T11:58:16.434Z,3.5
2023-03-05T11:59:25.124Z,4
2023-03-05T12:00:33.832Z,3.3
2023-03-05T12:01:43.484Z,2.9
2023-03-05T12:02:52.170Z,3.7
2023-03-05T12:04:01.925Z,3.4
2023-03-05T12:05:11.545Z,3.4
2023-03-05T12:06:19.208Z,3.3
2023-03-05T12:07:28.892Z,2.8
2023-03-05T12:08:37.573Z,3.7
2023-03-05T12:09:45.702Z,3.3
2023-03-05T12:10:54.991Z,3
2023-03-05T12:12:02.665Z,3.5
2023-03-05T12:13:11.343Z,3.4
2023-03-05T12:14:21.070Z,3.1
2023-03-05T12:15:29.720Z,2.9
2023-03-05T12:16:39.438Z,2
2023-03-05T12:17:49.063Z,2.5
2023-03-05T12:18:56.765Z,2.2
2023-03-05T12:20:06.563Z,1.9
2023-03-05T12:21:15.368Z,2.4
2023-03-05T12:22:24.093Z,2.2
2023-03-05T12:23:33.830Z,2
2023-03-05T12:24:41.501Z,2.2
2023-03-05T12:25:51.218Z,2.4
2023-03-05T12:27:00.925Z,2.3
2023-03-05T12:28:08.609Z,2.2
2023-03-05T12:29:18.311Z,2
2023-03-05T12:30:26.965Z,1.9
2023-03-05T12:31:36.753Z,1.9
2023-03-05T12:32:46.564Z,2.2
2023-03-05T12:33:55.104Z,1.9
2023-03-05T12:35:04.818Z,1.8
2023-03-05T12:36:12.512Z,1.9
2023-03-05T12:37:22.202Z,1.8
2023-03-05T12:38:31.864Z,2.3
2023-03-05T12:39:40.572Z,1.7
2023-03-05T12:40:50.319Z,2.2
2023-03-05T12:41:59.026Z,2.1
2023-03-05T12:43:06.740Z,2.1
2023-03-05T12:44:16.412Z,3
2023-03-05T12:45:25.097Z,2.1
2023-03-05T12:46:34.909Z,2.3
2023-03-05T12:47:44.497Z,2.1
2023-03-05T12:48:51.352Z,2.7
2023-03-05T12:50:00.996Z,2.2
2023-03-05T12:51:09.761Z,2.3
2023-03-05T12:52:19.463Z,2.8
2023-03-05T12:53:28.158Z,2.1
2023-03-05T12:54:34.836Z,2.3
2023-03-05T12:55:44.612Z,2.7
2023-03-05T12:56:53.403Z,2.4
2023-03-05T12:58:01.052Z,2.4
2023-03-05T12:59:10.755Z,2.4
2023-03-05T13:00:19.451Z,1.9
2023-03-05T13:01:29.165Z,2.1
2023-03-05T13:02:38.829Z,2.2
2023-03-05T13:03:48.578Z,2.4
2023-03-05T13:04:58.219Z,2
2023-03-05T13:06:06.976Z,2
2023-03-05T13:07:14.698Z,3.6
2023-03-05T13:08:24.497Z,2
2023-03-05T13:09:33.277Z,1.6
2023-03-05T13:10:41.944Z,1.7
2023-03-05T13:11:51.705Z,2.1
2023-03-05T13:12:59.336Z,2.6
2023-03-05T13:14:09.018Z,2.6
2023-03-05T13:15:17.702Z,1.6
2023-03-05T13:16:26.484Z,1.8
2023-03-05T13:17:36.094Z,1.6
2023-03-05T13:18:44.780Z,1.8
2023-03-05T13:19:54.473Z,1.6
2023-03-05T13:21:04.163Z,2.1
2023-03-05T13:22:12.849Z,1.2
2023-03-05T13:23:22.521Z,1.9
2023-03-05T13:24:31.221Z,1.5
2023-03-05T13:25:39.921Z,1.4
2023-03-05T13:26:49.637Z,1.7
2023-03-05T13:27:58.331Z,1.5
2023-03-05T13:29:07.034Z,1.7
2023-03-05T13:30:16.704Z,1.3
2023-03-05T13:31:25.467Z,1.6
2023-03-05T13:32:35.120Z,1.4
2023-03-05T13:33:43.764Z,1
2023-03-05T13:34:52.435Z,1.4
2023-03-05T13:36:02.228Z,1.4
2023-03-05T13:37:11.945Z,1.5
2023-03-05T13:38:20.652Z,1.5
2023-03-05T13:39:29.346Z,1.2
2023-03-05T13:40:38.038Z,1.6
2023-03-05T13:41:47.723Z,2
2023-03-05T13:42:57.414Z,1.7
2023-03-05T13:44:07.095Z,1.8
2023-03-05T13:45:16.966Z,1.4
2023-03-05T13:46:24.658Z,1.3
2023-03-05T13:47:33.361Z,1.6
2023-03-05T13:48:43.034Z,1.5
2023-03-05T13:49:53.721Z,1.6
2023-03-05T13:51:03.475Z,1.4
2023-03-05T13:52:12.205Z,1.4
2023-03-05T13:53:19.927Z,1.3
2023-03-05T13:54:29.630Z,1.5
2023-03-05T13:55:38.348Z,2
2023-03-05T13:56:47.072Z,1.9
2023-03-05T13:57:56.748Z,2
2023-03-05T13:59:05.397Z,2.1
2023-03-05T14:00:15.528Z,2.7
2023-03-05T14:01:24.817Z,2.5
2023-03-05T14:02:34.476Z,2
2023-03-05T14:03:44.207Z,2.2
2023-03-05T14:04:52.951Z,2.3
2023-03-05T14:06:01.513Z,2.2
2023-03-05T14:07:11.187Z,2.2
2023-03-05T14:08:20.885Z,2
2023-03-05T14:09:29.605Z,1.5
2023-03-05T14:10:39.367Z,1.9
2023-03-05T14:11:47.066Z,1.3
2023-03-05T14:12:56.764Z,1.3
2023-03-05T14:14:03.431Z,1.6
2023-03-05T14:15:13.090Z,1.7
2023-03-05T14:16:22.896Z,2.3
2023-03-05T14:17:30.541Z,1.7
2023-03-05T14:18:40.362Z,1.6
2023-03-05T14:19:49.027Z,1.6
2023-03-05T14:20:59.472Z,1.7
2023-03-05T14:22:08.475Z,1.5
2023-03-05T14:23:26.243Z,1.7
2023-03-05T14:24:28.957Z,2
2023-03-05T14:25:38.660Z,1.7
2023-03-05T14:26:46.319Z,1.7
2023-03-05T14:27:56.048Z,1.7
2023-03-05T14:29:05.705Z,1.5
2023-03-05T14:30:15.442Z,1.7
2023-03-05T14:31:25.103Z,1.8
2023-03-05T14:32:33.904Z,1.6
2023-03-05T14:33:41.511Z,2.3
2023-03-05T14:34:50.254Z,2.1
2023-03-05T14:36:00.054Z,2.3
2023-03-05T14:37:09.644Z,4.2
2023-03-05T14:38:19.312Z,4.4
2023-03-05T14:39:29.035Z,4.4
2023-03-05T14:40:38.708Z,4.5
2023-03-05T14:41:46.397Z,3.9
2023-03-05T14:42:56.106Z,2.7
2023-03-05T14:44:03.780Z,4.3
2023-03-05T14:45:13.487Z,2
2023-03-05T14:46:23.225Z,2.7
2023-03-05T14:47:32.856Z,2.9
2023-03-05T14:48:42.575Z,2.6
2023-03-05T14:49:50.237Z,2.3
2023-03-05T14:50:59.904Z,2.3
2023-03-05T14:52:09.664Z,2.1
2023-03-05T14:53:18.364Z,2.9
2023-03-05T14:54:27.166Z,1.8
2023-03-05T14:55:36.861Z,2.1
2023-03-05T14:56:46.566Z,2
2023-03-05T14:57:56.360Z,1.9
2023-03-05T14:59:06.004Z,2
2023-03-05T15:00:14.683Z,2.6
2023-03-05T15:01:24.414Z,1.8
2023-03-05T15:02:33.027Z,1.7
2023-03-05T15:03:40.671Z,2
2023-03-05T15:04:50.339Z,1.8
2023-03-05T15:05:58.067Z,2
2023-03-05T15:07:07.776Z,2
2023-03-05T15:08:17.589Z,2.7
2023-03-05T15:09:26.232Z,2
2023-03-05T15:10:35.886Z,1.9
2023-03-05T15:11:44.544Z,2.2
2023-03-05T15:12:54.226Z,2.1
2023-03-05T15:14:03.946Z,2.3
2023-03-05T15:15:13.612Z,2.9
2023-03-05T15:16:23.294Z,3.4
2023-03-05T15:17:31.981Z,3.4
2023-03-05T15:18:40.715Z,3
2023-03-05T15:19:50.383Z,2.9
2023-03-05T15:20:58.043Z,2.2
2023-03-05T15:22:05.750Z,2.5
2023-03-05T15:23:15.458Z,2.5
2023-03-05T15:24:26.139Z,2.6
2023-03-05T15:25:35.832Z,3.1
2023-03-05T15:26:45.545Z,3.1
2023-03-05T15:27:53.198Z,3.1
2023-03-05T15:29:02.951Z,3.3
2023-03-05T15:30:11.644Z,4.3
2023-03-05T15:31:20.365Z,4.7
2023-03-05T15:32:30.112Z,4.1
2023-03-05T15:33:38.776Z,4.4
2023-03-05T15:34:48.503Z,4.3
2023-03-05T15:35:58.163Z,4.2
2023-03-05T15:37:05.836Z,3.8
2023-03-05T15:38:15.570Z,3.6
2023-03-05T15:39:25.278Z,4.1
2023-03-05T15:40:33.938Z,3.1
2023-03-05T15:41:43.616Z,3.4
2023-03-05T15:42:53.987Z,2.8
2023-03-05T15:44:03.587Z,2.6
2023-03-05T15:45:12.258Z,2.5
2023-03-05T15:46:20.983Z,2.7
2023-03-05T15:47:33.359Z,2.9
2023-03-05T15:48:39.857Z,2.9
2023-03-05T15:49:49.532Z,3.1
2023-03-05T15:50:59.189Z,2.9
2023-03-05T15:52:06.908Z,3.1
2023-03-05T15:53:16.633Z,2.5
2023-03-05T15:54:25.274Z,1.8
2023-03-05T15:55:34.940Z,2.8
2023-03-05T15:56:43.644Z,2.2
2023-03-05T15:57:51.335Z,2.6
2023-03-05T15:59:01.040Z,2.4